METAR Data
IDs: Format: Raw Decoded Include TAF

Data at: 2029 UTC 23 Oct 2021

ETEB 231956Z AUTO 12004KT 9999 CLR 03/03 A3039 RMK AO2 SLP321 T00310030 $